createdAt,value
2018-11-22T12:17:11.124Z,4.70
2018-11-22T12:19:39.488Z,4.70
2018-11-22T12:22:07.885Z,4.70
2018-11-22T12:24:36.215Z,4.70
2018-11-22T12:27:04.503Z,4.80
2018-11-22T12:29:32.785Z,4.80
2018-11-22T12:32:06.292Z,4.80
2018-11-22T12:34:40.089Z,4.80
2018-11-22T12:37:47.023Z,4.80
2018-11-22T12:40:15.701Z,4.80
2018-11-22T12:42:44.205Z,4.90
2018-11-22T12:45:12.963Z,4.80
2018-11-22T12:47:41.529Z,4.80
2018-11-22T12:50:10.098Z,4.80
2018-11-22T12:52:38.424Z,4.80
2018-11-22T12:55:08.269Z,4.80
2018-11-22T12:57:36.611Z,4.90
2018-11-22T13:00:05.761Z,4.80
2018-11-22T13:02:34.107Z,4.90
2018-11-22T13:05:02.491Z,4.90
2018-11-22T13:07:30.789Z,4.90
2018-11-22T13:09:59.134Z,4.90
2018-11-22T13:12:27.613Z,4.90
2018-11-22T13:14:57.497Z,4.90
2018-11-22T13:17:26.284Z,4.90
2018-11-22T13:19:55.028Z,4.90
2018-11-22T13:22:25.385Z,4.90
2018-11-22T13:24:54.154Z,4.90
2018-11-22T13:27:25.236Z,4.90
2018-11-22T13:29:54.071Z,4.80
2018-11-22T13:32:23.520Z,4.80
2018-11-22T13:34:52.385Z,4.90
2018-11-22T13:37:21.692Z,4.90
2018-11-22T13:39:54.462Z,5.00
2018-11-22T13:42:22.875Z,5.00
2018-11-22T13:44:52.359Z,5.00
2018-11-22T13:47:20.966Z,5.00
2018-11-22T13:49:49.290Z,5.00
2018-11-22T13:52:17.658Z,4.90
2018-11-22T13:54:46.102Z,4.90
2018-11-22T13:57:14.468Z,4.90
2018-11-22T13:59:42.858Z,4.90
2018-11-22T14:02:11.128Z,4.80
2018-11-22T14:04:39.506Z,4.80
2018-11-22T14:07:07.861Z,4.80
2018-11-22T14:09:36.156Z,4.90
2018-11-22T14:12:04.663Z,4.80
2018-11-22T14:14:33.302Z,4.80
2018-11-22T14:17:02.010Z,4.80
2018-11-22T14:19:30.853Z,4.80
2018-11-22T14:22:06.019Z,4.70
2018-11-22T14:24:34.573Z,4.60
2018-11-22T14:27:03.425Z,4.60
2018-11-22T14:29:31.875Z,4.70
2018-11-22T14:32:00.418Z,4.70
2018-11-22T14:34:29.232Z,4.70
2018-11-22T14:36:57.657Z,4.80
2018-11-22T14:39:25.933Z,4.80
2018-11-22T14:41:54.185Z,4.80
2018-11-22T14:44:22.460Z,4.80
2018-11-22T14:46:50.752Z,4.70
2018-11-22T14:49:19.008Z,4.70
2018-11-22T14:51:49.066Z,4.70
2018-11-22T14:54:17.324Z,4.70
2018-11-22T14:56:45.588Z,4.70
2018-11-22T14:59:13.825Z,4.70
2018-11-22T15:01:42.064Z,4.70
2018-11-22T15:04:10.339Z,4.70
2018-11-22T15:06:38.666Z,4.60
2018-11-22T15:09:08.549Z,4.70
2018-11-22T15:11:36.854Z,4.60
2018-11-22T15:14:06.228Z,4.70
2018-11-22T15:16:34.693Z,4.60
2018-11-22T15:19:03.015Z,4.60
2018-11-22T15:21:31.455Z,4.50
2018-11-22T15:23:59.767Z,4.50
2018-11-22T15:26:28.056Z,4.60
2018-11-22T15:28:56.304Z,4.60
2018-11-22T15:31:24.580Z,4.60
2018-11-22T15:33:52.812Z,4.50
2018-11-22T15:36:21.045Z,4.50
2018-11-22T15:38:49.343Z,4.50
2018-11-22T15:41:17.627Z,4.50
2018-11-22T15:43:45.974Z,4.50
2018-11-22T15:46:14.466Z,4.60
2018-11-22T15:48:42.828Z,4.50
2018-11-22T15:51:11.192Z,4.50
2018-11-22T15:53:39.452Z,4.50
2018-11-22T15:56:07.930Z,4.50
2018-11-22T15:58:36.162Z,4.50
2018-11-22T16:01:04.441Z,4.50
2018-11-22T16:03:32.752Z,4.50
2018-11-22T16:06:01.014Z,4.50
2018-11-22T16:08:29.333Z,4.50
2018-11-22T16:10:57.589Z,4.50
2018-11-22T16:13:25.840Z,4.40
2018-11-22T16:15:54.856Z,4.50
2018-11-22T16:18:23.204Z,4.50
2018-11-22T16:20:51.540Z,4.50
2018-11-22T16:23:19.983Z,4.50
2018-11-22T16:25:48.333Z,4.50
2018-11-22T16:28:16.633Z,4.40
2018-11-22T16:30:44.881Z,4.50
2018-11-22T16:33:13.142Z,4.50
2018-11-22T16:35:41.424Z,4.50
2018-11-22T16:38:09.684Z,4.50
2018-11-22T16:40:38.026Z,4.50
2018-11-22T16:43:06.604Z,4.50
2018-11-22T16:45:36.025Z,4.50
2018-11-22T16:48:06.840Z,4.50
2018-11-22T16:50:36.065Z,4.50
2018-11-22T16:56:15.907Z,4.50
2018-11-22T16:58:49.617Z,4.50
2018-11-22T17:01:20.516Z,4.50
2018-11-22T17:03:49.172Z,4.60
2018-11-22T17:08:54.671Z,4.60
2018-11-22T17:11:23.028Z,4.60
2018-11-22T17:13:51.460Z,4.60
2018-11-22T17:16:30.435Z,4.60
2018-11-22T17:18:59.481Z,4.60
2018-11-22T17:21:32.973Z,4.60
2018-11-22T17:24:01.892Z,4.50
2018-11-22T17:26:30.507Z,4.50
2018-11-22T17:29:02.710Z,4.50
2018-11-22T17:31:33.381Z,4.50
2018-11-22T17:34:05.258Z,4.50
2018-11-22T17:36:34.013Z,4.50
2018-11-22T17:39:07.633Z,4.50
2018-11-22T17:41:36.655Z,4.50
2018-11-22T17:44:06.494Z,4.40
2018-11-22T17:46:35.275Z,4.40
2018-11-22T17:49:05.337Z,4.40
2018-11-22T17:51:34.585Z,4.40
2018-11-22T17:54:03.998Z,4.40
2018-11-22T17:56:39.065Z,4.40
2018-11-22T17:59:08.148Z,4.40
2018-11-22T18:01:37.668Z,4.40
2018-11-22T18:04:08.102Z,4.40
2018-11-22T18:06:38.562Z,4.30
2018-11-22T18:09:10.320Z,4.30
2018-11-22T18:11:39.460Z,4.20
2018-11-22T18:14:10.693Z,4.20
2018-11-22T18:16:40.826Z,4.20
2018-11-22T18:19:09.478Z,4.10
2018-11-22T18:21:39.597Z,4.10
2018-11-22T18:24:10.597Z,4.10
2018-11-22T18:26:41.149Z,4.10
2018-11-22T18:29:11.917Z,4.10
2018-11-22T18:31:43.109Z,4.00
2018-11-22T18:34:13.234Z,4.00
2018-11-22T18:36:43.376Z,4.00
2018-11-22T18:39:14.260Z,4.00
2018-11-22T18:41:45.433Z,4.00
2018-11-22T18:44:14.796Z,4.00
2018-11-22T18:46:44.242Z,4.10
2018-11-22T18:49:15.821Z,4.10
2018-11-22T18:51:45.725Z,4.10
2018-11-22T18:54:16.226Z,4.10
2018-11-22T18:56:45.097Z,4.10
2018-11-22T18:59:15.672Z,4.10
2018-11-22T19:01:45.149Z,4.20
2018-11-22T19:04:16.800Z,4.20
2018-11-22T19:06:46.670Z,4.20
2018-11-22T19:09:16.827Z,4.10
2018-11-22T19:11:48.558Z,4.20
2018-11-22T19:14:17.503Z,4.20
2018-11-22T19:16:49.132Z,4.20
2018-11-22T19:19:19.524Z,4.30
2018-11-22T19:21:50.315Z,4.20
2018-11-22T19:24:22.556Z,4.30
2018-11-22T19:26:51.935Z,4.30
2018-11-22T19:29:21.694Z,4.30
2018-11-22T19:31:51.557Z,4.30
2018-11-22T19:34:21.851Z,4.30
2018-11-22T19:36:55.748Z,4.30
2018-11-22T19:39:24.940Z,4.30
2018-11-22T19:41:54.031Z,4.30
2018-11-22T19:44:23.734Z,4.30
2018-11-22T19:46:54.596Z,4.30
2018-11-22T19:49:25.050Z,4.30
2018-11-22T19:51:53.842Z,4.30
2018-11-22T19:54:24.801Z,4.30
2018-11-22T19:56:56.587Z,4.30
2018-11-22T19:59:26.297Z,4.30
2018-11-22T20:01:56.735Z,4.30
2018-11-22T20:04:26.986Z,4.30
2018-11-22T20:07:04.325Z,4.30
2018-11-22T20:09:35.458Z,4.30
2018-11-22T20:12:04.800Z,4.30
2018-11-22T20:14:34.210Z,4.30
2018-11-22T20:17:03.477Z,4.30
2018-11-22T20:19:32.890Z,4.30
2018-11-22T20:22:02.130Z,4.20
2018-11-22T20:24:31.883Z,4.20
2018-11-22T20:27:02.038Z,4.20
2018-11-22T20:29:31.670Z,4.20
2018-11-22T20:32:00.488Z,4.20
2018-11-22T20:34:29.319Z,4.20
2018-11-22T20:36:59.848Z,4.20
2018-11-22T20:39:31.991Z,4.20
2018-11-22T20:42:07.460Z,4.20
2018-11-22T20:44:36.335Z,4.10
2018-11-22T20:47:05.229Z,4.20
2018-11-22T20:49:34.619Z,4.20
2018-11-22T20:52:04.209Z,4.20
2018-11-22T20:54:35.041Z,4.20
2018-11-22T20:57:05.631Z,4.20
2018-11-22T20:59:36.405Z,4.20
2018-11-22T21:02:06.356Z,4.20
2018-11-22T21:04:37.367Z,4.30
2018-11-22T21:07:07.313Z,4.20
2018-11-22T21:09:39.951Z,4.30
2018-11-22T21:12:08.643Z,4.30
2018-11-22T21:14:38.697Z,4.30
2018-11-22T21:17:11.344Z,4.30
2018-11-22T21:19:41.168Z,4.30
2018-11-22T21:22:10.136Z,4.30
2018-11-22T21:24:39.497Z,4.20
2018-11-22T21:27:10.312Z,4.20
2018-11-22T21:29:39.871Z,4.10
2018-11-22T21:32:10.756Z,4.10
2018-11-22T21:34:40.878Z,4.00
2018-11-22T21:37:10.198Z,4.00
2018-11-22T21:39:38.844Z,4.00
2018-11-22T21:42:12.047Z,3.90
2018-11-22T21:44:41.439Z,3.80
2018-11-22T21:47:12.744Z,3.70
2018-11-22T21:49:45.399Z,3.60
2018-11-22T21:52:14.158Z,3.60
2018-11-22T21:54:42.657Z,3.50
2018-11-22T21:57:12.040Z,3.50
2018-11-22T21:59:44.429Z,3.40
2018-11-22T22:02:16.468Z,3.40
2018-11-22T22:04:45.148Z,3.40
2018-11-22T22:07:13.467Z,3.40
2018-11-22T22:09:41.845Z,3.30
2018-11-22T22:12:15.849Z,3.30
2018-11-22T22:14:47.700Z,3.30
2018-11-22T22:17:17.026Z,3.30
2018-11-22T22:19:48.614Z,3.30
2018-11-22T22:22:18.952Z,3.30
2018-11-22T22:24:48.240Z,3.20
2018-11-22T22:27:16.616Z,3.20
2018-11-22T22:29:45.076Z,3.10
2018-11-22T22:32:18.972Z,3.20
2018-11-22T22:34:53.733Z,3.20
2018-11-22T22:37:22.559Z,3.10
2018-11-22T22:39:51.106Z,3.10
2018-11-22T22:42:19.595Z,3.10
2018-11-22T22:44:52.572Z,3.10
2018-11-22T22:47:22.337Z,3.10
2018-11-22T22:49:51.689Z,3.10
2018-11-22T22:52:24.222Z,3.10
2018-11-22T22:54:54.012Z,3.10
2018-11-22T22:57:22.428Z,3.10
2018-11-22T22:59:53.505Z,3.10
2018-11-22T23:02:24.719Z,3.10
2018-11-22T23:04:57.013Z,3.00
2018-11-22T23:07:26.270Z,3.10
2018-11-22T23:09:55.503Z,3.00
2018-11-22T23:12:26.307Z,3.00
2018-11-22T23:14:59.084Z,3.00
2018-11-22T23:17:27.558Z,3.00
2018-11-22T23:19:56.809Z,2.90
2018-11-22T23:22:28.030Z,2.90
2018-11-22T23:24:56.566Z,2.90
2018-11-22T23:27:27.952Z,2.90
2018-11-22T23:30:00.784Z,2.90
2018-11-22T23:32:29.381Z,2.90
2018-11-22T23:35:00.077Z,2.90
2018-11-22T23:37:30.816Z,2.80
2018-11-22T23:40:00.004Z,2.80
2018-11-22T23:42:29.844Z,2.80
2018-11-22T23:44:58.274Z,2.80
2018-11-22T23:47:27.477Z,2.70
2018-11-22T23:49:57.722Z,2.70
2018-11-22T23:52:26.619Z,2.60
2018-11-22T23:54:55.217Z,2.60
2018-11-22T23:57:24.033Z,2.60
2018-11-22T23:59:55.861Z,2.60
